createdAt,value
2022-12-01T00:01:22.576Z,100.00
2022-12-01T00:03:50.485Z,100.00
2022-12-01T00:06:20.866Z,100.00
2022-12-01T00:09:08.866Z,99.58
2022-12-01T00:11:38.353Z,100.00
2022-12-01T00:14:06.055Z,100.00
2022-12-01T00:16:34.333Z,100.00
2022-12-01T00:19:02.366Z,100.00
2022-12-01T00:21:29.908Z,100.00
2022-12-01T00:23:58.405Z,99.88
2022-12-01T00:26:27.598Z,99.58
2022-12-01T00:28:59.566Z,99.56
2022-12-01T00:31:27.765Z,98.39
2022-12-01T00:33:55.457Z,97.92
2022-12-01T00:36:23.283Z,98.61
2022-12-01T00:38:56.344Z,98.16
2022-12-01T00:41:25.460Z,96.90
2022-12-01T00:43:53.430Z,97.50
2022-12-01T00:46:21.183Z,96.85
2022-12-01T00:48:49.505Z,97.10
2022-12-01T00:51:17.222Z,96.07
2022-12-01T00:53:44.652Z,95.62
2022-12-01T00:56:12.197Z,97.02
2022-12-01T00:58:39.994Z,96.75
2022-12-01T01:01:07.671Z,98.10
2022-12-01T01:03:35.051Z,97.89
2022-12-01T01:06:08.151Z,97.54
2022-12-01T01:08:36.111Z,97.85
2022-12-01T01:11:04.748Z,98.98
2022-12-01T01:13:32.737Z,99.47
2022-12-01T01:16:06.115Z,99.69
2022-12-01T01:18:33.929Z,99.56
2022-12-01T01:21:05.702Z,99.13
2022-12-01T01:23:35.000Z,99.00
2022-12-01T01:26:08.813Z,98.38
2022-12-01T01:28:36.414Z,98.53
2022-12-01T01:31:12.679Z,98.75
2022-12-01T01:33:40.490Z,98.63
2022-12-01T01:36:09.140Z,98.33
2022-12-01T01:38:37.300Z,99.39
2022-12-01T01:41:06.241Z,99.08
2022-12-01T01:43:49.226Z,99.06
2022-12-01T01:46:28.089Z,99.40
2022-12-01T01:49:06.137Z,99.22
2022-12-01T01:51:45.210Z,100.00
2022-12-01T01:54:16.417Z,99.35
2022-12-01T01:56:49.268Z,99.25
2022-12-01T01:59:26.905Z,100.00
2022-12-01T02:02:03.664Z,99.43
2022-12-01T02:04:33.061Z,99.37
2022-12-01T02:07:00.455Z,99.00
2022-12-01T02:09:29.587Z,97.83
2022-12-01T02:12:11.709Z,97.71
2022-12-01T02:15:00.420Z,97.74
2022-12-01T02:17:41.357Z,97.38
2022-12-01T02:20:41.568Z,97.07
2022-12-01T02:23:28.072Z,96.93
2022-12-01T02:26:27.011Z,96.75
2022-12-01T02:29:26.196Z,96.65
2022-12-01T02:32:18.269Z,98.19
2022-12-01T02:35:03.871Z,99.37
2022-12-01T02:38:08.205Z,99.15
2022-12-01T02:40:57.507Z,99.25
2022-12-01T02:43:33.201Z,99.21
2022-12-01T02:46:11.635Z,99.92
2022-12-01T02:48:43.204Z,100.00
2022-12-01T02:51:20.192Z,100.00
2022-12-01T02:53:47.892Z,100.00
2022-12-01T02:56:20.313Z,100.00
2022-12-01T02:58:47.687Z,100.00
2022-12-01T03:01:46.485Z,100.00
2022-12-01T03:04:42.155Z,100.00
2022-12-01T03:07:47.412Z,100.00
2022-12-01T03:10:25.841Z,99.61
2022-12-01T03:13:12.050Z,99.20
2022-12-01T03:16:05.573Z,98.59
2022-12-01T03:18:38.701Z,98.35
2022-12-01T03:21:23.922Z,97.97
2022-12-01T03:24:00.081Z,98.09
2022-12-01T03:26:30.475Z,98.12
2022-12-01T03:29:07.048Z,98.12
2022-12-01T03:31:46.211Z,98.09
2022-12-01T03:34:23.363Z,97.98
2022-12-01T03:37:01.957Z,98.62
2022-12-01T03:39:33.587Z,98.10
2022-12-01T03:42:07.724Z,97.88
2022-12-01T03:44:43.421Z,98.03
2022-12-01T03:47:19.609Z,98.15
2022-12-01T03:49:50.941Z,99.19
2022-12-01T03:52:49.822Z,99.08
2022-12-01T03:55:25.118Z,99.32
2022-12-01T03:58:07.611Z,99.18
2022-12-01T04:00:36.366Z,100.00
2022-12-01T04:03:05.051Z,99.26
2022-12-01T04:05:35.043Z,98.95
2022-12-01T04:08:02.746Z,99.20
2022-12-01T04:10:30.682Z,99.03
2022-12-01T04:12:59.875Z,98.42
2022-12-01T04:15:28.512Z,98.20
2022-12-01T04:17:56.276Z,98.49
2022-12-01T04:20:23.823Z,98.76
2022-12-01T04:22:51.228Z,98.66
2022-12-01T04:25:18.979Z,98.43
2022-12-01T04:27:46.334Z,98.52
2022-12-01T04:30:13.988Z,98.73
2022-12-01T04:32:43.674Z,98.22
2022-12-01T04:35:12.434Z,97.69
2022-12-01T04:37:40.452Z,97.84
2022-12-01T04:40:08.980Z,97.83
2022-12-01T04:42:36.878Z,97.71
2022-12-01T04:45:04.482Z,97.52
2022-12-01T04:47:32.501Z,97.36
2022-12-01T04:50:00.803Z,96.98
2022-12-01T04:52:32.129Z,97.67
2022-12-01T04:55:04.195Z,98.06
2022-12-01T04:57:31.740Z,97.52
2022-12-01T04:59:59.335Z,97.38
2022-12-01T05:02:27.166Z,97.25
2022-12-01T05:04:54.656Z,97.54
2022-12-01T05:07:22.081Z,97.45
2022-12-01T05:09:50.023Z,97.22
2022-12-01T05:12:17.621Z,97.80
2022-12-01T05:14:46.356Z,98.51
2022-12-01T05:17:14.025Z,98.90
2022-12-01T05:20:02.438Z,98.98
2022-12-01T05:22:57.292Z,98.74
2022-12-01T05:25:18.380Z,98.98
2022-12-01T05:27:46.211Z,98.96
2022-12-01T05:30:13.705Z,98.75
2022-12-01T05:32:41.239Z,98.64
2022-12-01T05:35:09.166Z,97.94
2022-12-01T05:37:36.479Z,98.50
2022-12-01T05:40:04.004Z,98.41
2022-12-01T05:42:31.762Z,99.08
2022-12-01T05:44:59.195Z,100.00
2022-12-01T05:47:26.660Z,100.00
2022-12-01T05:49:54.368Z,100.00
2022-12-01T05:52:21.736Z,100.00
2022-12-01T05:54:49.051Z,100.00
2022-12-01T05:57:16.854Z,99.54
2022-12-01T05:59:44.214Z,99.37
2022-12-01T06:02:11.606Z,99.24
2022-12-01T06:04:39.683Z,98.85
2022-12-01T06:07:07.425Z,98.33
2022-12-01T06:09:35.228Z,98.21
2022-12-01T06:12:03.414Z,97.78
2022-12-01T06:14:30.769Z,97.28
2022-12-01T06:16:58.333Z,97.10
2022-12-01T06:19:26.042Z,96.90
2022-12-01T06:21:53.485Z,97.00
2022-12-01T06:24:21.769Z,96.79
2022-12-01T06:26:49.672Z,97.16
2022-12-01T06:29:17.094Z,97.13
2022-12-01T06:31:44.468Z,96.50
2022-12-01T06:34:12.370Z,95.87
2022-12-01T06:36:39.647Z,95.30
2022-12-01T06:39:11.086Z,95.27
2022-12-01T06:41:39.518Z,95.05
2022-12-01T06:44:06.812Z,94.76
2022-12-01T06:46:34.331Z,94.02
2022-12-01T06:49:02.126Z,93.64
2022-12-01T06:51:30.633Z,93.82
2022-12-01T06:54:03.766Z,92.92
2022-12-01T06:56:33.039Z,92.96
2022-12-01T06:59:00.796Z,93.46
2022-12-01T07:01:28.727Z,93.47
2022-12-01T07:03:56.581Z,95.44
2022-12-01T07:06:24.038Z,94.73
2022-12-01T07:08:52.682Z,95.37
2022-12-01T07:11:20.398Z,96.44
2022-12-01T07:13:49.696Z,96.55
2022-12-01T07:16:16.994Z,97.22
2022-12-01T07:18:45.277Z,96.43
2022-12-01T07:21:14.076Z,97.12
2022-12-01T07:23:42.048Z,97.07
2022-12-01T07:26:13.020Z,97.84
2022-12-01T07:28:40.379Z,98.04
2022-12-01T07:31:10.684Z,97.91
2022-12-01T07:33:38.965Z,97.43
2022-12-01T07:36:07.218Z,97.25
2022-12-01T07:38:35.484Z,96.92
2022-12-01T07:41:08.409Z,97.20
2022-12-01T07:43:36.414Z,96.34
2022-12-01T07:46:05.654Z,96.27
2022-12-01T07:48:33.141Z,96.46
2022-12-01T07:51:00.552Z,95.81
2022-12-01T07:53:28.322Z,95.77
2022-12-01T07:55:55.974Z,95.35
2022-12-01T07:58:23.301Z,96.19
2022-12-01T08:00:51.142Z,95.60
2022-12-01T08:03:19.368Z,96.59
2022-12-01T08:05:55.781Z,97.33
2022-12-01T08:08:26.162Z,96.39
2022-12-01T08:10:54.309Z,96.39
2022-12-01T08:13:23.352Z,96.21
2022-12-01T08:15:51.054Z,97.55
2022-12-01T08:18:18.352Z,97.68
2022-12-01T08:20:45.692Z,97.86
2022-12-01T08:23:13.341Z,97.90
2022-12-01T08:25:40.977Z,97.14
2022-12-01T08:28:08.564Z,97.52
2022-12-01T08:30:36.508Z,98.78
2022-12-01T08:33:03.932Z,97.68
2022-12-01T08:35:31.289Z,97.29
2022-12-01T08:37:58.977Z,97.24
2022-12-01T08:40:26.393Z,97.61
2022-12-01T08:42:53.748Z,97.01
2022-12-01T08:45:23.312Z,96.38
2022-12-01T08:47:50.793Z,98.09
2022-12-01T08:50:18.136Z,96.75
2022-12-01T08:52:46.327Z,96.41
2022-12-01T08:55:13.708Z,97.26
2022-12-01T08:57:41.104Z,97.34
2022-12-01T09:00:09.403Z,96.85
2022-12-01T09:02:36.833Z,97.30
2022-12-01T09:05:05.488Z,97.52
2022-12-01T09:07:33.636Z,96.86
2022-12-01T09:10:01.051Z,97.11
2022-12-01T09:12:29.750Z,97.58
2022-12-01T09:14:57.480Z,97.25
2022-12-01T09:17:24.939Z,98.28
2022-12-01T09:19:52.705Z,98.62
2022-12-01T09:22:20.515Z,96.94
2022-12-01T09:24:47.892Z,96.91
2022-12-01T09:27:15.250Z,97.29
2022-12-01T09:29:43.747Z,96.05
2022-12-01T09:32:11.386Z,96.21
2022-12-01T09:34:38.673Z,97.33
2022-12-01T09:37:07.130Z,98.14
2022-12-01T09:39:34.509Z,98.43
2022-12-01T09:42:32.389Z,97.83
2022-12-01T09:45:05.160Z,97.52
2022-12-01T09:47:35.825Z,98.40
2022-12-01T09:50:16.613Z,97.24
2022-12-01T09:52:53.580Z,97.65
2022-12-01T09:55:24.585Z,97.79
2022-12-01T09:57:55.469Z,96.65
2022-12-01T10:00:31.553Z,96.26
2022-12-01T10:03:37.638Z,94.51
2022-12-01T10:06:28.731Z,95.43
2022-12-01T10:09:16.108Z,97.34
2022-12-01T10:11:45.904Z,95.25
2022-12-01T10:14:20.147Z,96.28
2022-12-01T10:17:40.377Z,96.88
2022-12-01T10:20:25.101Z,96.93
2022-12-01T10:22:55.587Z,96.60
2022-12-01T10:25:25.748Z,95.99
2022-12-01T10:28:24.052Z,95.80
2022-12-01T10:30:54.159Z,96.64
2022-12-01T10:33:40.599Z,96.86
2022-12-01T10:36:10.703Z,96.54
2022-12-01T10:38:39.408Z,96.27
2022-12-01T10:41:12.400Z,98.40
2022-12-01T10:43:46.173Z,97.45
2022-12-01T10:46:45.336Z,97.44
2022-12-01T10:49:15.492Z,97.88
2022-12-01T10:51:57.573Z,95.49
2022-12-01T10:54:45.543Z,96.08
2022-12-01T10:57:17.864Z,96.00
2022-12-01T10:59:48.906Z,95.90
2022-12-01T11:02:22.906Z,95.24
2022-12-01T11:04:57.752Z,94.84
2022-12-01T11:07:28.649Z,95.36
2022-12-01T11:10:17.552Z,94.22
2022-12-01T11:12:53.080Z,95.38
2022-12-01T11:15:24.596Z,94.60
2022-12-01T11:18:06.891Z,95.18
2022-12-01T11:20:37.504Z,94.45
2022-12-01T11:23:27.066Z,94.43
2022-12-01T11:26:01.257Z,94.08
2022-12-01T11:28:30.305Z,94.68
2022-12-01T11:31:06.649Z,94.58
2022-12-01T11:33:47.010Z,95.55
2022-12-01T11:36:46.108Z,95.57
2022-12-01T11:39:26.951Z,94.71
2022-12-01T11:42:03.778Z,94.61
2022-12-01T11:44:50.856Z,93.06
2022-12-01T11:47:25.608Z,93.12
2022-12-01T11:50:22.857Z,92.90
2022-12-01T11:52:50.657Z,92.29
2022-12-01T11:55:18.056Z,93.22
2022-12-01T11:57:48.904Z,93.15
2022-12-01T12:00:19.358Z,93.81
2022-12-01T12:03:15.907Z,93.16
2022-12-01T12:05:52.818Z,93.44
2022-12-01T12:08:39.846Z,93.41
2022-12-01T12:11:21.562Z,91.63
2022-12-01T12:14:48.779Z,93.23
2022-12-01T12:17:27.148Z,94.00
2022-12-01T12:20:08.465Z,93.84
2022-12-01T12:22:46.914Z,93.76
2022-12-01T12:25:24.473Z,94.13
2022-12-01T12:28:08.959Z,93.06
2022-12-01T12:30:59.149Z,94.96
2022-12-01T12:33:49.436Z,94.90
2022-12-01T12:36:43.130Z,96.49
2022-12-01T12:39:15.129Z,96.65
2022-12-01T12:42:23.152Z,95.27
2022-12-01T12:45:07.265Z,96.20
2022-12-01T12:47:55.169Z,97.67
2022-12-01T12:51:02.303Z,96.49
2022-12-01T12:53:40.071Z,97.35
2022-12-01T12:56:12.518Z,95.94
2022-12-01T12:58:50.163Z,97.41
2022-12-01T13:01:26.488Z,97.61
2022-12-01T13:04:20.655Z,97.45
2022-12-01T13:06:54.878Z,97.16
2022-12-01T13:09:32.073Z,95.97
2022-12-01T13:12:08.303Z,95.65
2022-12-01T13:15:03.724Z,97.03
2022-12-01T13:17:38.660Z,96.85
2022-12-01T13:20:07.661Z,97.74
2022-12-01T13:22:36.418Z,97.70
2022-12-01T13:25:04.953Z,96.88
2022-12-01T13:27:36.882Z,96.77
2022-12-01T13:30:05.972Z,97.11
2022-12-01T13:32:38.613Z,95.99
2022-12-01T13:35:29.345Z,95.23
2022-12-01T13:38:23.059Z,94.91
2022-12-01T13:41:12.456Z,95.13
2022-12-01T13:44:00.118Z,95.76
2022-12-01T13:46:43.036Z,94.46
2022-12-01T13:49:34.358Z,96.33
2022-12-01T13:52:23.692Z,95.29
2022-12-01T13:55:09.990Z,95.20
2022-12-01T13:57:40.392Z,95.82
2022-12-01T14:00:43.603Z,95.16
2022-12-01T14:03:17.280Z,94.80
2022-12-01T14:05:54.041Z,94.36
2022-12-01T14:08:26.518Z,93.56
2022-12-01T14:11:00.074Z,92.32
2022-12-01T14:13:29.148Z,92.64
2022-12-01T14:15:59.888Z,91.61
2022-12-01T14:18:43.040Z,93.30
2022-12-01T14:21:12.674Z,93.06
2022-12-01T14:24:01.105Z,93.31
2022-12-01T14:26:30.741Z,92.65
2022-12-01T14:29:01.711Z,91.53
2022-12-01T14:31:35.443Z,91.41
2022-12-01T14:34:15.735Z,91.30
2022-12-01T14:37:18.897Z,91.40
2022-12-01T14:39:58.769Z,93.48
2022-12-01T14:42:55.185Z,93.50
2022-12-01T14:45:29.260Z,94.09
2022-12-01T14:48:02.549Z,94.67
2022-12-01T14:50:51.693Z,94.21
2022-12-01T14:53:29.678Z,94.19
2022-12-01T14:56:09.594Z,93.82
2022-12-01T14:58:37.153Z,93.32
2022-12-01T15:01:11.333Z,93.07
2022-12-01T15:03:42.785Z,92.89
2022-12-01T15:06:15.841Z,91.72
2022-12-01T15:08:53.262Z,92.08
2022-12-01T15:11:31.217Z,91.65
2022-12-01T15:13:58.779Z,92.15
2022-12-01T15:16:32.166Z,92.41
2022-12-01T15:18:59.995Z,92.92
2022-12-01T15:21:30.624Z,93.37
2022-12-01T15:24:02.129Z,93.17
2022-12-01T15:26:45.886Z,93.06
2022-12-01T15:29:16.002Z,93.27
2022-12-01T15:31:46.991Z,93.18
2022-12-01T15:34:25.247Z,92.69
2022-12-01T15:36:54.688Z,93.08
2022-12-01T15:39:36.498Z,93.75
2022-12-01T15:42:05.183Z,92.55
2022-12-01T15:44:35.886Z,91.06
2022-12-01T15:47:36.990Z,92.32
2022-12-01T15:50:05.886Z,92.80
2022-12-01T15:52:41.894Z,93.05
2022-12-01T15:55:25.115Z,94.49
2022-12-01T15:57:53.375Z,95.60
2022-12-01T16:00:22.442Z,95.87
2022-12-01T16:02:53.622Z,96.21
2022-12-01T16:05:26.350Z,95.25
2022-12-01T16:10:42.606Z,92.59
2022-12-01T16:13:37.718Z,91.89
2022-12-01T16:16:23.960Z,91.93
2022-12-01T16:19:23.936Z,90.92
2022-12-01T16:22:20.561Z,93.02
2022-12-01T16:24:53.123Z,92.72
2022-12-01T16:27:31.806Z,91.61
2022-12-01T16:30:05.109Z,91.56
2022-12-01T16:32:39.652Z,92.73
2022-12-01T16:35:30.647Z,94.13
2022-12-01T16:37:58.926Z,94.43
2022-12-01T16:40:28.068Z,94.24
2022-12-01T16:42:56.536Z,93.73
2022-12-01T16:45:26.874Z,93.51
2022-12-01T16:47:54.728Z,93.52
2022-12-01T16:50:23.119Z,92.48
2022-12-01T16:52:50.776Z,92.04
2022-12-01T16:55:27.459Z,92.16
2022-12-01T16:57:55.600Z,91.22
2022-12-01T17:00:23.840Z,92.49
2022-12-01T17:02:52.841Z,92.70
2022-12-01T17:05:20.582Z,93.06
2022-12-01T17:07:48.560Z,92.94
2022-12-01T17:10:16.286Z,92.70
2022-12-01T17:12:43.967Z,92.46
2022-12-01T17:15:11.905Z,91.22
2022-12-01T17:17:39.305Z,90.45
2022-12-01T17:20:07.698Z,90.48
2022-12-01T17:22:35.928Z,91.36
2022-12-01T17:25:04.330Z,92.96
2022-12-01T17:27:32.600Z,93.19
2022-12-01T17:30:02.193Z,92.71
2022-12-01T17:32:29.713Z,92.43
2022-12-01T17:34:57.395Z,92.16
2022-12-01T17:37:28.024Z,92.06
2022-12-01T17:39:55.484Z,92.22
2022-12-01T17:42:23.089Z,91.75
2022-12-01T17:44:51.024Z,92.08
2022-12-01T17:47:18.712Z,92.16
2022-12-01T17:49:46.071Z,91.85
2022-12-01T17:52:14.151Z,92.18
2022-12-01T17:54:41.624Z,91.88
2022-12-01T17:57:08.995Z,92.04
2022-12-01T17:59:37.114Z,91.45
2022-12-01T18:02:05.073Z,91.45
2022-12-01T18:04:33.401Z,91.59
2022-12-01T18:07:00.998Z,91.74
2022-12-01T18:09:28.493Z,91.92
2022-12-01T18:11:57.265Z,92.18
2022-12-01T18:14:25.957Z,92.30
2022-12-01T18:16:53.986Z,92.56
2022-12-01T18:19:22.133Z,92.39
2022-12-01T18:21:50.761Z,92.34
2022-12-01T18:24:18.176Z,91.65
2022-12-01T18:26:46.012Z,91.85
2022-12-01T18:29:16.561Z,91.85
2022-12-01T18:31:44.370Z,92.21
2022-12-01T18:34:12.575Z,91.71
2022-12-01T18:36:41.006Z,92.03
2022-12-01T18:39:10.875Z,91.34
2022-12-01T18:41:39.063Z,92.48
2022-12-01T18:44:06.591Z,92.51
2022-12-01T18:46:34.262Z,91.91
2022-12-01T18:49:03.188Z,90.35
2022-12-01T18:51:32.419Z,91.49
2022-12-01T18:54:01.481Z,92.74
2022-12-01T18:56:30.276Z,93.93
2022-12-01T18:58:59.984Z,94.16
2022-12-01T19:01:32.065Z,93.16
2022-12-01T19:04:01.156Z,94.02
2022-12-01T19:06:29.719Z,93.60
2022-12-01T19:09:00.827Z,94.11
2022-12-01T19:11:29.885Z,94.62
2022-12-01T19:13:58.208Z,94.69
2022-12-01T19:16:26.290Z,94.18
2022-12-01T19:18:54.228Z,93.00
2022-12-01T19:21:21.948Z,92.60
2022-12-01T19:23:52.058Z,92.83
2022-12-01T19:26:22.730Z,93.80
2022-12-01T19:28:50.424Z,93.47
2022-12-01T19:31:22.947Z,94.26
2022-12-01T19:33:52.797Z,94.48
2022-12-01T19:36:23.680Z,94.21
2022-12-01T19:38:52.730Z,94.56
2022-12-01T19:41:21.230Z,94.09
2022-12-01T19:43:49.050Z,93.94
2022-12-01T19:46:20.831Z,92.76
2022-12-01T19:48:54.014Z,91.80
2022-12-01T19:51:28.238Z,92.78
2022-12-01T19:53:56.717Z,94.26
2022-12-01T19:56:24.845Z,93.97
2022-12-01T19:58:52.759Z,93.88
2022-12-01T20:01:21.199Z,93.23
2022-12-01T20:03:50.984Z,92.69
2022-12-01T20:06:22.952Z,92.68
2022-12-01T20:08:51.777Z,92.28
2022-12-01T20:11:19.662Z,92.48
2022-12-01T20:13:48.034Z,93.88
2022-12-01T20:16:18.990Z,93.91
2022-12-01T20:18:47.536Z,92.84
2022-12-01T20:21:36.005Z,92.30
2022-12-01T20:24:07.919Z,91.72
2022-12-01T20:26:40.025Z,91.71
2022-12-01T20:29:11.448Z,93.03
2022-12-01T20:31:40.208Z,93.84
2022-12-01T20:34:13.117Z,94.06
2022-12-01T20:36:41.221Z,94.25
2022-12-01T20:39:10.930Z,94.35
2022-12-01T20:41:40.530Z,94.68
2022-12-01T20:44:09.170Z,94.56
2022-12-01T20:46:38.555Z,94.41
2022-12-01T20:49:06.388Z,94.50
2022-12-01T20:51:35.443Z,94.24
2022-12-01T20:54:27.205Z,94.14
2022-12-01T20:56:54.879Z,94.58
2022-12-01T20:59:23.010Z,94.77
2022-12-01T21:01:50.430Z,95.33
2022-12-01T21:04:18.080Z,94.91
2022-12-01T21:06:46.550Z,94.56
2022-12-01T21:09:15.158Z,94.26
2022-12-01T21:12:06.770Z,94.28
2022-12-01T21:15:13.656Z,93.94
2022-12-01T21:17:51.841Z,94.28
2022-12-01T21:20:28.883Z,94.07
2022-12-01T21:23:02.696Z,94.25
2022-12-01T21:25:31.164Z,94.51
2022-12-01T21:28:18.205Z,94.38
2022-12-01T21:30:48.212Z,94.76
2022-12-01T21:33:39.090Z,94.44
2022-12-01T21:36:18.884Z,93.41
2022-12-01T21:38:48.400Z,94.02
2022-12-01T21:41:24.393Z,94.29
2022-12-01T21:43:54.053Z,94.70
2022-12-01T21:46:22.145Z,94.20
2022-12-01T21:48:50.313Z,94.07
2022-12-01T21:51:26.161Z,93.47
2022-12-01T21:53:56.694Z,94.57
2022-12-01T21:56:29.353Z,94.53
2022-12-01T21:59:02.682Z,94.68
2022-12-01T22:01:32.474Z,94.95
2022-12-01T22:04:02.841Z,95.43
2022-12-01T22:06:38.972Z,94.79
2022-12-01T22:09:26.818Z,95.37
2022-12-01T22:12:11.581Z,95.70
2022-12-01T22:14:39.427Z,96.20
2022-12-01T22:17:06.753Z,96.35
2022-12-01T22:20:01.779Z,96.87
2022-12-01T22:22:30.947Z,96.77
2022-12-01T22:25:23.090Z,97.46
2022-12-01T22:27:51.584Z,97.37
2022-12-01T22:30:24.234Z,97.07
2022-12-01T22:33:04.031Z,97.42
2022-12-01T22:35:33.141Z,97.26
2022-12-01T22:38:06.931Z,97.19
2022-12-01T22:40:51.838Z,97.16
2022-12-01T22:43:43.397Z,97.04
2022-12-01T22:46:15.739Z,97.20
2022-12-01T22:48:49.941Z,97.37
2022-12-01T22:51:37.989Z,97.25
2022-12-01T22:54:12.299Z,97.20
2022-12-01T22:56:50.136Z,97.66
2022-12-01T22:59:23.526Z,97.91
2022-12-01T23:01:59.537Z,97.77
2022-12-01T23:04:40.033Z,97.85
2022-12-01T23:07:43.434Z,97.67
2022-12-01T23:10:20.736Z,97.80
2022-12-01T23:12:50.748Z,98.12
2022-12-01T23:15:35.514Z,97.49
2022-12-01T23:18:21.662Z,97.30
2022-12-01T23:20:54.160Z,97.62
2022-12-01T23:23:33.739Z,97.52
2022-12-01T23:26:04.860Z,97.37
2022-12-01T23:28:32.184Z,97.57
2022-12-01T23:31:00.256Z,97.63
2022-12-01T23:33:30.357Z,97.46
2022-12-01T23:36:02.482Z,96.70
2022-12-01T23:38:36.568Z,96.61
2022-12-01T23:41:13.580Z,96.54
2022-12-01T23:43:44.605Z,95.94
2022-12-01T23:46:18.624Z,95.70
2022-12-01T23:48:51.294Z,95.77
2022-12-01T23:51:29.937Z,95.97
2022-12-01T23:54:01.631Z,95.92
2022-12-01T23:56:31.758Z,95.72
2022-12-01T23:59:01.149Z,95.42
